Time;durP1;ratioP1;P1;durP2;ratioP2;P2;SDS_P1;SDS_P2;PMS_P1;PMS_P2;Temp;Humidity;BMP_temperature;BMP_pressure;BME280_temperature;BME280_humidity;BME280_pressure;Samples;Min_cycle;Max_cycle;Signal;HPM_P1;HPM_P2
2023/06/16 00:00:37;;;;;;;7.65;6.78;;;;;;;;;;10281761;28;20046;-81
2023/06/16 00:05:37;;;;;;;10.73;8.48;;;;;;;;;;10268672;28;20054;-81
2023/06/16 00:10:38;;;;;;;7.60;6.82;;;;;;;;;;10267475;28;20049;-79
2023/06/16 00:15:38;;;;;;;9.47;7.23;;;;;;;;;;10287482;28;20043;-78
2023/06/16 00:20:39;;;;;;;10.50;7.93;;;;;;;;;;10277292;28;20894;-79
2023/06/16 00:25:39;;;;;;;9.20;8.40;;;;;;;;;;10271745;28;21222;-78
2023/06/16 00:30:39;;;;;;;7.80;7.10;;;;;;;;;;10277662;28;20324;-78
2023/06/16 00:35:40;;;;;;;8.65;7.68;;;;;;;;;;10256106;28;20344;-77
2023/06/16 00:40:40;;;;;;;7.93;7.22;;;;;;;;;;10270712;28;20493;-79
2023/06/16 00:45:41;;;;;;;8.53;7.73;;;;;;;;;;10273235;28;20443;-79
2023/06/16 00:50:44;;;;;;;8.82;7.93;;;;;;;;;;10266091;28;20350;-77
2023/06/16 00:55:46;;;;;;;8.85;7.90;;;;;;;;;;10266844;28;20050;-78
2023/06/16 01:00:46;;;;;;;9.63;8.32;;;;;;;;;;10293610;28;20598;-78
2023/06/16 01:05:48;;;;;;;8.80;7.90;;;;;;;;;;10268651;28;20050;-77
2023/06/16 01:11:11;;;;;;;9.53;8.43;;;;;;;;;;10261187;28;20586;-77
2023/06/16 01:16:15;;;;;;;9.63;7.55;;;;;;;;;;10241258;28;20293;-79
2023/06/16 01:21:28;;;;;;;9.67;8.67;;;;;;;;;;10272343;28;20051;-77
2023/06/16 01:26:32;;;;;;;9.18;7.57;;;;;;;;;;10264967;28;20067;-81
2023/06/16 01:31:33;;;;;;;8.48;7.45;;;;;;;;;;10251249;28;20074;-79
2023/06/16 01:36:36;;;;;;;9.32;8.32;;;;;;;;;;10261898;28;20046;-80
2023/06/16 01:41:37;;;;;;;9.25;8.35;;;;;;;;;;10259552;28;20081;-79
2023/06/16 01:46:37;;;;;;;8.82;7.90;;;;;;;;;;10268460;28;21295;-79
2023/06/16 01:51:38;;;;;;;8.57;7.53;;;;;;;;;;10265373;28;20095;-79
2023/06/16 01:56:40;;;;;;;8.90;8.10;;;;;;;;;;10253396;28;20044;-78
2023/06/16 02:01:45;;;;;;;8.32;7.53;;;;;;;;;;10255013;28;20046;-82
2023/06/16 02:07:01;;;;;;;9.07;8.27;;;;;;;;;;10249544;28;20081;-79
2023/06/16 02:12:02;;;;;;;10.23;8.65;;;;;;;;;;10266907;28;20056;-76
2023/06/16 02:17:05;;;;;;;9.60;8.63;;;;;;;;;;10257783;28;20185;-79
2023/06/16 02:22:05;;;;;;;10.07;9.07;;;;;;;;;;10254585;28;20031;-77
2023/06/16 02:27:06;;;;;;;9.18;8.30;;;;;;;;;;10271219;28;20043;-78
2023/06/16 02:32:06;;;;;;;10.30;8.60;;;;;;;;;;10267390;28;20642;-76
2023/06/16 02:37:07;;;;;;;9.15;8.13;;;;;;;;;;10290029;28;20313;-77
2023/06/16 02:42:08;;;;;;;9.43;8.52;;;;;;;;;;10263898;28;20080;-77
2023/06/16 02:47:08;;;;;;;9.70;8.70;;;;;;;;;;10263151;28;20065;-76
2023/06/16 02:52:11;;;;;;;9.65;8.68;;;;;;;;;;10236600;28;20133;-79
2023/06/16 02:57:13;;;;;;;10.70;9.23;;;;;;;;;;10239402;28;20146;-77
2023/06/16 03:02:19;;;;;;;9.90;8.48;;;;;;;;;;10264455;28;20034;-76
2023/06/16 03:07:24;;;;;;;10.68;9.15;;;;;;;;;;10258926;28;20130;-80
2023/06/16 03:12:25;;;;;;;10.70;9.10;;;;;;;;;;10271962;28;20034;-80
2023/06/16 03:17:36;;;;;;;11.25;9.70;;;;;;;;;;10246218;28;20057;-76
2023/06/16 03:22:37;;;;;;;10.40;8.35;;;;;;;;;;10263705;28;20045;-79
2023/06/16 03:27:40;;;;;;;10.80;9.80;;;;;;;;;;10268212;28;20162;-79
2023/06/16 03:32:44;;;;;;;;;;;;;;;;;;10269101;28;20645;-78
2023/06/16 03:37:44;;;;;;;10.15;9.15;;;;;;;;;;10259078;28;19922;-78
2023/06/16 03:42:46;;;;;;;10.88;9.18;;;;;;;;;;10262578;28;20535;-77
2023/06/16 03:47:47;;;;;;;9.60;8.65;;;;;;;;;;10268808;28;20053;-79
2023/06/16 03:52:47;;;;;;;10.68;9.57;;;;;;;;;;10269908;28;20054;-77
2023/06/16 03:57:50;;;;;;;10.10;9.15;;;;;;;;;;10259881;28;20058;-78
2023/06/16 04:02:50;;;;;;;10.70;9.60;;;;;;;;;;10270218;28;20520;-77
2023/06/16 04:07:57;;;;;;;10.65;9.60;;;;;;;;;;10250392;28;20062;-80
2023/06/16 04:12:58;;;;;;;11.23;10.13;;;;;;;;;;10291298;28;20053;-80
2023/06/16 04:18:01;;;;;;;13.23;10.55;;;;;;;;;;10253137;28;20043;-78
2023/06/16 04:23:01;;;;;;;10.90;9.80;;;;;;;;;;10271071;28;20042;-80
2023/06/16 04:28:04;;;;;;;10.77;9.60;;;;;;;;;;10263450;28;20078;-80
2023/06/16 04:33:05;;;;;;;10.55;9.45;;;;;;;;;;10271834;28;20047;-77
2023/06/16 04:38:08;;;;;;;9.70;8.70;;;;;;;;;;10255367;28;20496;-74
2023/06/16 04:43:10;;;;;;;8.73;7.88;;;;;;;;;;10270829;28;20137;-77
2023/06/16 04:48:12;;;;;;;10.75;9.65;;;;;;;;;;10256047;28;20515;-77
2023/06/16 04:53:12;;;;;;;13.23;9.23;;;;;;;;;;10264501;28;20039;-77
2023/06/16 04:58:12;;;;;;;11.03;9.00;;;;;;;;;;10236761;28;20769;-77
2023/06/16 05:03:13;;;;;;;10.68;9.57;;;;;;;;;;10262083;28;20877;-77
2023/06/16 05:08:13;;;;;;;10.90;9.75;;;;;;;;;;10264126;28;20070;-75
2023/06/16 05:13:13;;;;;;;11.33;10.10;;;;;;;;;;10264482;28;20051;-77
2023/06/16 05:18:14;;;;;;;10.73;9.63;;;;;;;;;;10251507;28;20313;-77
2023/06/16 05:23:14;;;;;;;12.52;10.25;;;;;;;;;;10263977;28;20551;-77
2023/06/16 05:28:15;;;;;;;12.43;11.13;;;;;;;;;;10264549;28;20047;-77
2023/06/16 05:33:16;;;;;;;11.93;10.45;;;;;;;;;;10269382;28;20530;-80
2023/06/16 05:38:16;;;;;;;12.63;10.50;;;;;;;;;;10273242;28;20027;-80
2023/06/16 05:43:18;;;;;;;10.73;9.73;;;;;;;;;;10254666;28;20047;-75
2023/06/16 05:48:19;;;;;;;13.00;10.73;;;;;;;;;;10266339;28;20137;-82
2023/06/16 05:53:20;;;;;;;10.95;9.90;;;;;;;;;;10261049;28;20303;-80
2023/06/16 05:58:21;;;;;;;12.02;10.75;;;;;;;;;;10293992;28;20482;-78
2023/06/16 06:03:24;;;;;;;10.48;9.00;;;;;;;;;;10306556;28;20095;-84
2023/06/16 06:08:28;;;;;;;10.75;9.57;;;;;;;;;;10289344;28;20130;-86
2023/06/16 06:13:29;;;;;;;10.40;8.23;;;;;;;;;;10256008;28;20049;-82
2023/06/16 06:18:30;;;;;;;10.13;8.85;;;;;;;;;;10263283;28;20415;-82
2023/06/16 06:23:32;;;;;;;10.40;9.38;;;;;;;;;;10261118;28;20105;-78
2023/06/16 06:28:33;;;;;;;9.95;8.95;;;;;;;;;;10251881;28;20701;-85
2023/06/16 06:33:35;;;;;;;8.40;7.60;;;;;;;;;;10264176;28;20141;-78
2023/06/16 06:38:36;;;;;;;11.88;9.15;;;;;;;;;;10276639;28;20086;-77
2023/06/16 06:43:36;;;;;;;8.32;7.43;;;;;;;;;;10301763;28;20053;-75
2023/06/16 06:48:41;;;;;;;9.10;8.20;;;;;;;;;;10322396;28;20311;-75
2023/06/16 06:53:44;;;;;;;14.63;12.90;;;;;;;;;;10317248;28;20054;-83
2023/06/16 06:58:44;;;;;;;10.50;9.20;;;;;;;;;;10291746;28;20094;-81
2023/06/16 07:03:45;;;;;;;12.65;9.48;;;;;;;;;;10289876;28;20324;-79
2023/06/16 07:08:47;;;;;;;;;;;;;;;;;;10281169;28;20054;-79
2023/06/16 07:13:48;;;;;;;9.55;8.65;;;;;;;;;;10270734;28;19930;-79
2023/06/16 07:18:48;;;;;;;10.50;9.10;;;;;;;;;;10268193;28;20054;-79
2023/06/16 07:23:49;;;;;;;8.35;7.40;;;;;;;;;;10272631;28;20124;-80
2023/06/16 07:28:49;;;;;;;8.93;8.03;;;;;;;;;;10271582;28;20435;-80
2023/06/16 07:33:50;;;;;;;9.43;8.40;;;;;;;;;;10262331;28;21712;-79
2023/06/16 07:38:50;;;;;;;8.97;8.07;;;;;;;;;;10256313;28;20142;-79
2023/06/16 07:43:50;;;;;;;11.80;8.73;;;;;;;;;;10277605;28;20341;-80
2023/06/16 07:48:51;;;;;;;8.63;7.82;;;;;;;;;;10274365;28;20384;-80
2023/06/16 07:53:51;;;;;;;8.57;7.33;;;;;;;;;;10253419;28;20105;-81
2023/06/16 07:58:51;;;;;;;7.60;6.90;;;;;;;;;;10259748;28;20055;-82
2023/06/16 08:03:52;;;;;;;6.57;5.93;;;;;;;;;;10282748;28;20313;-79
2023/06/16 08:08:53;;;;;;;6.43;5.88;;;;;;;;;;10273817;28;20285;-81
2023/06/16 08:13:53;;;;;;;10.45;7.20;;;;;;;;;;10288863;28;20050;-81
2023/06/16 08:18:57;;;;;;;8.48;7.10;;;;;;;;;;10274613;28;20397;-81
2023/06/16 08:23:58;;;;;;;6.82;6.18;;;;;;;;;;10302393;28;20090;-77
2023/06/16 08:28:58;;;;;;;7.90;6.97;;;;;;;;;;10304510;28;20069;-77
2023/06/16 08:33:59;;;;;;;6.57;5.97;;;;;;;;;;10300920;28;20308;-79
2023/06/16 08:39:00;;;;;;;7.60;6.00;;;;;;;;;;10275385;28;20384;-77
2023/06/16 08:44:01;;;;;;;8.85;6.88;;;;;;;;;;10268342;28;20062;-78
2023/06/16 08:49:02;;;;;;;6.95;6.25;;;;;;;;;;10255224;28;20074;-78
2023/06/16 08:54:06;;;;;;;7.93;7.13;;;;;;;;;;10272609;28;20047;-79
2023/06/16 08:59:07;;;;;;;7.82;5.95;;;;;;;;;;10280313;28;20415;-78
2023/06/16 09:04:08;;;;;;;6.70;6.00;;;;;;;;;;10312099;28;20072;-80
2023/06/16 09:09:09;;;;;;;6.40;5.80;;;;;;;;;;10320488;28;20042;-79
2023/06/16 09:14:10;;;;;;;5.40;4.78;;;;;;;;;;10273395;28;20050;-79
2023/06/16 09:19:12;;;;;;;6.97;5.05;;;;;;;;;;10271941;28;20051;-79
2023/06/16 09:24:13;;;;;;;9.63;7.83;;;;;;;;;;10249893;28;20055;-79
2023/06/16 09:29:21;;;;;;;8.50;5.30;;;;;;;;;;10270605;28;20423;-78
2023/06/16 09:34:31;;;;;;;7.05;4.80;;;;;;;;;;10270407;28;20286;-82
2023/06/16 09:39:31;;;;;;;5.07;4.57;;;;;;;;;;10269708;28;20047;-80
2023/06/16 09:44:32;;;;;;;7.30;4.60;;;;;;;;;;10282122;28;20070;-79
2023/06/16 09:49:32;;;;;;;5.60;4.80;;;;;;;;;;10285170;28;20562;-79
2023/06/16 09:54:33;;;;;;;8.75;5.18;;;;;;;;;;10275609;28;20043;-77
2023/06/16 09:59:33;;;;;;;6.78;5.13;;;;;;;;;;10323223;28;20034;-78
2023/06/16 10:04:34;;;;;;;6.03;4.80;;;;;;;;;;10323192;28;20051;-77
2023/06/16 10:09:54;;;;;;;6.10;4.72;;;;;;;;;;10295694;28;20122;-78
2023/06/16 10:14:56;;;;;;;7.10;4.90;;;;;;;;;;10275401;28;20070;-77
2023/06/16 10:19:57;;;;;;;5.35;4.38;;;;;;;;;;10271644;28;20070;-79
2023/06/16 10:25:00;;;;;;;5.90;5.32;;;;;;;;;;10268441;28;20065;-78
2023/06/16 10:30:01;;;;;;;8.07;4.68;;;;;;;;;;10271943;28;20039;-75
2023/06/16 10:35:01;;;;;;;5.32;4.00;;;;;;;;;;10252725;28;20050;-78
2023/06/16 10:40:08;;;;;;;6.82;4.40;;;;;;;;;;10252713;28;20054;-79
2023/06/16 10:45:21;;;;;;;6.88;4.30;;;;;;;;;;10263376;28;20055;-80
2023/06/16 10:50:28;;;;;;;4.80;4.32;;;;;;;;;;10253976;28;20055;-80
2023/06/16 10:55:33;;;;;;;5.72;4.38;;;;;;;;;;10259346;28;20054;-81
2023/06/16 11:00:34;;;;;;;4.53;4.05;;;;;;;;;;10275590;28;20115;-79
2023/06/16 11:05:41;;;;;;;4.75;4.18;;;;;;;;;;10292185;28;20054;-76
2023/06/16 11:11:01;;;;;;;5.07;3.90;;;;;;;;;;10284182;28;20398;-79
2023/06/16 11:16:03;;;;;;;5.80;3.80;;;;;;;;;;10265068;28;20038;-80
2023/06/16 11:21:04;;;;;;;6.90;4.40;;;;;;;;;;10262676;28;20050;-81
2023/06/16 11:26:06;;;;;;;8.10;4.38;;;;;;;;;;10273511;28;20059;-81
2023/06/16 11:31:07;;;;;;;7.30;3.70;;;;;;;;;;10277781;28;20070;-80
2023/06/16 11:36:18;;;;;;;5.20;3.75;;;;;;;;;;10275345;28;20484;-79
2023/06/16 11:41:20;;;;;;;4.87;3.73;;;;;;;;;;10261984;28;20133;-80
2023/06/16 11:46:28;;;;;;;4.55;3.92;;;;;;;;;;10276833;28;20061;-80
2023/06/16 11:51:29;;;;;;;5.53;3.90;;;;;;;;;;10277374;28;20104;-79
2023/06/16 11:56:30;;;;;;;4.22;3.83;;;;;;;;;;10315852;28;20054;-80
2023/06/16 12:01:31;;;;;;;5.47;3.75;;;;;;;;;;10355965;28;20032;-81
2023/06/16 12:06:34;;;;;;;4.00;3.67;;;;;;;;;;10324477;28;20451;-80
2023/06/16 12:11:35;;;;;;;5.22;3.38;;;;;;;;;;10289539;28;20563;-79
2023/06/16 12:16:35;;;;;;;7.05;3.50;;;;;;;;;;10276119;28;20054;-79
2023/06/16 12:21:37;;;;;;;3.93;3.17;;;;;;;;;;10251956;28;20488;-81
2023/06/16 12:26:41;;;;;;;5.50;3.50;;;;;;;;;;10287181;28;20448;-79
2023/06/16 12:31:51;;;;;;;4.20;3.50;;;;;;;;;;10281610;28;20600;-81
2023/06/16 12:36:54;;;;;;;5.40;3.63;;;;;;;;;;10270256;28;20890;-79
2023/06/16 12:41:55;;;;;;;8.30;3.88;;;;;;;;;;10254507;28;20081;-80
2023/06/16 12:46:56;;;;;;;5.30;3.80;;;;;;;;;;10278462;28;20930;-81
2023/06/16 12:51:56;;;;;;;6.07;4.03;;;;;;;;;;10274077;28;20054;-80
2023/06/16 12:56:57;;;;;;;4.53;3.63;;;;;;;;;;10280915;28;20053;-80
2023/06/16 13:01:58;;;;;;;7.13;3.90;;;;;;;;;;10287573;28;20050;-80
2023/06/16 13:06:59;;;;;;;3.90;3.60;;;;;;;;;;10303926;28;20314;-80
2023/06/16 13:12:01;;;;;;;4.00;3.60;;;;;;;;;;10309934;28;20039;-80
2023/06/16 13:17:02;;;;;;;3.95;3.63;;;;;;;;;;10275173;28;20047;-84
2023/06/16 13:22:03;;;;;;;6.22;3.55;;;;;;;;;;10275003;28;20050;-82
2023/06/16 13:27:05;;;;;;;8.52;4.45;;;;;;;;;;10272193;28;20050;-81
2023/06/16 13:32:06;;;;;;;5.25;3.88;;;;;;;;;;10272349;28;21199;-82
2023/06/16 13:37:06;;;;;;;4.70;3.72;;;;;;;;;;10274446;28;20050;-81
2023/06/16 13:42:07;;;;;;;6.90;3.75;;;;;;;;;;10279439;28;20062;-81
2023/06/16 13:47:07;;;;;;;4.72;3.80;;;;;;;;;;10274859;28;20551;-84
2023/06/16 13:52:08;;;;;;;5.25;3.65;;;;;;;;;;10310473;28;20050;-81
2023/06/16 13:57:09;;;;;;;10.77;4.40;;;;;;;;;;10334923;28;20039;-80
2023/06/16 14:02:10;;;;;;;4.20;3.80;;;;;;;;;;10344617;28;20098;-83
2023/06/16 14:07:10;;;;;;;5.00;3.73;;;;;;;;;;10307935;28;20081;-80
2023/06/16 14:12:11;;;;;;;3.83;3.37;;;;;;;;;;10292943;28;20350;-79
2023/06/16 14:17:13;;;;;;;4.13;3.72;;;;;;;;;;10321991;28;20301;-80
2023/06/16 14:22:14;;;;;;;5.53;3.57;;;;;;;;;;10313671;28;20105;-81
2023/06/16 14:27:15;;;;;;;4.53;3.15;;;;;;;;;;10292287;28;20396;-83
2023/06/16 14:32:15;;;;;;;4.93;3.42;;;;;;;;;;10297651;28;20038;-78
2023/06/16 14:37:16;;;;;;;4.28;3.78;;;;;;;;;;10310909;28;20109;-77
2023/06/16 14:42:16;;;;;;;4.03;3.63;;;;;;;;;;10309824;28;20066;-79
2023/06/16 14:47:16;;;;;;;6.28;4.30;;;;;;;;;;10278523;28;20313;-82
2023/06/16 14:52:20;;;;;;;4.63;4.10;;;;;;;;;;10275887;28;20146;-83
2023/06/16 14:57:28;;;;;;;5.53;4.10;;;;;;;;;;10308000;28;20314;-84
2023/06/16 15:02:28;;;;;;;4.28;3.75;;;;;;;;;;10263077;28;20054;-82
2023/06/16 15:07:30;;;;;;;5.63;3.80;;;;;;;;;;10288522;28;20038;-83
2023/06/16 15:12:35;;;;;;;5.88;3.58;;;;;;;;;;10302221;28;20069;-83
2023/06/16 15:17:37;;;;;;;4.70;3.63;;;;;;;;;;10293776;28;20043;-84
2023/06/16 15:22:42;;;;;;;3.88;3.55;;;;;;;;;;10281196;28;20043;-83
2023/06/16 15:27:42;;;;;;;4.68;4.22;;;;;;;;;;10272010;28;20057;-83
2023/06/16 15:32:43;;;;;;;7.65;4.38;;;;;;;;;;10252790;28;20515;-88
2023/06/16 15:37:43;;;;;;;5.67;3.57;;;;;;;;;;10277275;28;20069;-83
2023/06/16 15:42:46;;;;;;;11.57;3.70;;;;;;;;;;10270343;28;20306;-82
2023/06/16 15:47:48;;;;;;;5.70;3.60;;;;;;;;;;10261576;28;20298;-79
2023/06/16 15:52:48;;;;;;;4.30;3.70;;;;;;;;;;10260048;28;20085;-70
2023/06/16 15:57:49;;;;;;;5.50;3.40;;;;;;;;;;10266496;28;20667;-67
2023/06/16 16:02:49;;;;;;;4.13;3.17;;;;;;;;;;10267677;28;20050;-73
2023/06/16 16:07:49;;;;;;;3.27;2.93;;;;;;;;;;10251410;28;20290;-69
2023/06/16 16:12:50;;;;;;;3.75;3.35;;;;;;;;;;10266636;28;20405;-70
2023/06/16 16:17:50;;;;;;;4.00;3.58;;;;;;;;;;10270295;28;20042;-71
2023/06/16 16:22:50;;;;;;;4.80;3.70;;;;;;;;;;10273512;28;20090;-72
2023/06/16 16:27:51;;;;;;;5.77;4.00;;;;;;;;;;10277179;28;20062;-74
2023/06/16 16:32:51;;;;;;;3.42;3.10;;;;;;;;;;10270630;28;20050;-70
2023/06/16 16:37:52;;;;;;;3.65;2.95;;;;;;;;;;10255318;28;20133;-69
2023/06/16 16:42:53;;;;;;;4.38;2.42;;;;;;;;;;10267491;28;20605;-68
2023/06/16 16:47:53;;;;;;;5.13;3.00;;;;;;;;;;10268497;28;20050;-67
2023/06/16 16:52:54;;;;;;;3.13;2.43;;;;;;;;;;10267960;28;20480;-68
2023/06/16 16:57:56;;;;;;;4.33;3.07;;;;;;;;;;10266242;28;20361;-72
2023/06/16 17:02:56;;;;;;;;;;;;;;;;;;10272480;28;20072;-71
2023/06/16 17:07:57;;;;;;;2.33;2.13;;;;;;;;;;10262331;28;19992;-72
2023/06/16 17:12:57;;;;;;;3.07;2.00;;;;;;;;;;10251708;28;20050;-72
2023/06/16 17:17:57;;;;;;;2.40;1.70;;;;;;;;;;10272741;28;20328;-71
2023/06/16 17:22:58;;;;;;;2.30;2.10;;;;;;;;;;10275100;28;20298;-78
2023/06/16 17:27:59;;;;;;;2.10;1.70;;;;;;;;;;10256642;28;20891;-73
2023/06/16 17:33:00;;;;;;;2.30;1.67;;;;;;;;;;10274532;28;20058;-76
2023/06/16 17:38:00;;;;;;;2.33;2.05;;;;;;;;;;10272931;28;21223;-71
2023/06/16 17:43:01;;;;;;;4.82;2.90;;;;;;;;;;10271174;28;20672;-71
2023/06/16 17:48:02;;;;;;;4.05;3.33;;;;;;;;;;10291969;28;20046;-79
2023/06/16 17:53:03;;;;;;;4.32;2.90;;;;;;;;;;10264368;28;20596;-73
2023/06/16 17:58:03;;;;;;;4.15;2.40;;;;;;;;;;10271427;28;20153;-72
2023/06/16 18:03:04;;;;;;;3.70;3.17;;;;;;;;;;10278100;28;20137;-73
2023/06/16 18:08:04;;;;;;;4.70;3.20;;;;;;;;;;10280215;28;20066;-79
2023/06/16 18:13:04;;;;;;;3.25;2.95;;;;;;;;;;10271374;28;20297;-76
2023/06/16 18:18:05;;;;;;;4.40;3.50;;;;;;;;;;10278637;28;20039;-74
2023/06/16 18:23:06;;;;;;;3.25;2.95;;;;;;;;;;10265098;28;20086;-75
2023/06/16 18:28:08;;;;;;;4.78;3.35;;;;;;;;;;10269097;28;20080;-83
2023/06/16 18:33:09;;;;;;;4.47;3.60;;;;;;;;;;10255885;28;20113;-78
2023/06/16 18:38:09;;;;;;;3.72;3.42;;;;;;;;;;10276004;28;20101;-75
2023/06/16 18:43:10;;;;;;;4.93;3.80;;;;;;;;;;10271455;28;20058;-79
2023/06/16 18:48:10;;;;;;;3.90;3.50;;;;;;;;;;10272762;28;20097;-79
2023/06/16 18:53:13;;;;;;;4.30;3.90;;;;;;;;;;10285926;28;20035;-79
2023/06/16 18:58:13;;;;;;;4.35;3.95;;;;;;;;;;10247999;28;20782;-81
2023/06/16 19:03:13;;;;;;;4.80;4.20;;;;;;;;;;10292886;28;20043;-76
2023/06/16 19:08:14;;;;;;;5.43;4.00;;;;;;;;;;10282963;28;20066;-79
2023/06/16 19:13:14;;;;;;;5.80;4.40;;;;;;;;;;10282578;28;20297;-78
2023/06/16 19:18:15;;;;;;;5.53;4.47;;;;;;;;;;10281456;28;20054;-78
2023/06/16 19:23:16;;;;;;;4.93;4.27;;;;;;;;;;10277238;28;20051;-76
2023/06/16 19:28:17;;;;;;;4.72;3.90;;;;;;;;;;10260302;28;20592;-82
2023/06/16 19:33:17;;;;;;;5.32;4.47;;;;;;;;;;10276431;28;20043;-76
2023/06/16 19:38:18;;;;;;;4.77;4.27;;;;;;;;;;10272648;28;20046;-75
2023/06/16 19:43:18;;;;;;;5.77;4.70;;;;;;;;;;10254360;28;20059;-73
2023/06/16 19:48:19;;;;;;;5.72;4.50;;;;;;;;;;10256296;28;20050;-69
2023/06/16 19:53:19;;;;;;;6.35;4.72;;;;;;;;;;10269940;28;20600;-69
2023/06/16 19:58:20;;;;;;;4.78;4.32;;;;;;;;;;10269965;28;20062;-75
2023/06/16 20:03:23;;;;;;;5.17;4.67;;;;;;;;;;10280896;28;20047;-73
2023/06/16 20:08:24;;;;;;;6.35;4.95;;;;;;;;;;10270449;28;20042;-71
2023/06/16 20:13:26;;;;;;;6.57;5.80;;;;;;;;;;10255298;28;20070;-77
2023/06/16 20:18:26;;;;;;;11.80;8.53;;;;;;;;;;10249984;28;20278;-73
2023/06/16 20:23:28;;;;;;;7.50;6.47;;;;;;;;;;10267785;28;21094;-74
2023/06/16 20:28:28;;;;;;;7.37;6.67;;;;;;;;;;10266324;28;20047;-79
2023/06/16 20:33:29;;;;;;;6.33;5.50;;;;;;;;;;10266559;28;20798;-75
2023/06/16 20:38:29;;;;;;;7.05;5.40;;;;;;;;;;10248346;28;20046;-75
2023/06/16 20:43:31;;;;;;;5.25;4.68;;;;;;;;;;10267525;28;20517;-75
2023/06/16 20:48:32;;;;;;;5.25;4.75;;;;;;;;;;10280428;28;20050;-78
2023/06/16 20:53:35;;;;;;;6.32;5.15;;;;;;;;;;10275302;28;20098;-75
2023/06/16 20:58:36;;;;;;;;;;;;;;;;;;10256019;28;20053;-76
2023/06/16 21:03:36;;;;;;;6.65;4.43;;;;;;;;;;10265266;28;19925;-75
2023/06/16 21:08:38;;;;;;;5.50;4.10;;;;;;;;;;10249289;28;20518;-75
2023/06/16 21:13:39;;;;;;;5.28;4.75;;;;;;;;;;10267357;28;20414;-74
2023/06/16 21:18:39;;;;;;;5.30;4.80;;;;;;;;;;10265810;28;20098;-74
2023/06/16 21:23:40;;;;;;;4.83;4.40;;;;;;;;;;10268675;28;20121;-76
2023/06/16 21:28:40;;;;;;;4.82;4.30;;;;;;;;;;10266156;28;20294;-80
2023/06/16 21:33:41;;;;;;;5.37;4.87;;;;;;;;;;10247346;28;20526;-78
2023/06/16 21:38:43;;;;;;;4.60;4.10;;;;;;;;;;10264880;28;20290;-76
2023/06/16 21:43:44;;;;;;;4.97;3.75;;;;;;;;;;10265216;28;20058;-81
2023/06/16 21:48:46;;;;;;;;;;;;;;;;;;10273453;28;20114;-75
2023/06/16 21:53:48;;;;;;;4.88;4.38;;;;;;;;;;10266267;28;19918;-75
2023/06/16 21:58:48;;;;;;;4.68;4.28;;;;;;;;;;10298031;28;20074;-77
2023/06/16 22:03:48;;;;;;;4.70;4.10;;;;;;;;;;10294307;28;20069;-76
2023/06/16 22:08:51;;;;;;;4.50;4.07;;;;;;;;;;10263695;28;20059;-76
2023/06/16 22:13:53;;;;;;;;;;;;;;;;;;10262802;28;20046;-75
2023/06/16 22:18:53;;;;;;;4.40;4.00;;;;;;;;;;10263076;28;19918;-74
2023/06/16 22:23:54;;;;;;;4.60;4.20;;;;;;;;;;10252200;28;20074;-75
2023/06/16 22:28:54;;;;;;;5.33;4.10;;;;;;;;;;10262771;28;20070;-74
2023/06/16 22:33:54;;;;;;;3.80;3.23;;;;;;;;;;10262549;28;20293;-77
2023/06/16 22:38:55;;;;;;;4.35;3.80;;;;;;;;;;10263503;28;20278;-77
2023/06/16 22:43:55;;;;;;;4.20;3.80;;;;;;;;;;10240886;28;20047;-78
2023/06/16 22:48:56;;;;;;;4.43;3.92;;;;;;;;;;10245021;28;20047;-76
2023/06/16 22:53:56;;;;;;;4.93;3.95;;;;;;;;;;10244088;28;20039;-77
2023/06/16 22:58:56;;;;;;;4.83;4.33;;;;;;;;;;10259526;28;20487;-75
2023/06/16 23:03:57;;;;;;;5.13;4.63;;;;;;;;;;10245143;28;20310;-77
2023/06/16 23:08:57;;;;;;;4.83;4.17;;;;;;;;;;10245878;28;20377;-80
2023/06/16 23:13:57;;;;;;;5.13;4.63;;;;;;;;;;10260937;28;20276;-75
2023/06/16 23:18:58;;;;;;;4.57;4.18;;;;;;;;;;10262220;28;20055;-75
2023/06/16 23:23:58;;;;;;;5.00;4.25;;;;;;;;;;10270828;28;20074;-75
2023/06/16 23:29:04;;;;;;;4.65;4.20;;;;;;;;;;10268511;28;20043;-75
2023/06/16 23:34:04;;;;;;;5.40;4.90;;;;;;;;;;10265748;28;20073;-78
2023/06/16 23:39:10;;;;;;;5.38;4.75;;;;;;;;;;10277280;28;20042;-77
2023/06/16 23:44:10;;;;;;;5.78;5.00;;;;;;;;;;10255595;28;20562;-76
2023/06/16 23:49:11;;;;;;;6.55;4.82;;;;;;;;;;10279173;28;20094;-77
2023/06/16 23:54:13;;;;;;;5.80;4.63;;;;;;;;;;10279212;28;20381;-79
2023/06/16 23:59:13;;;;;;;5.70;4.95;;;;;;;;;;10255029;28;20683;-76
